createdAt,value
2018-07-25T00:00:11.552Z,81.30
2018-07-25T00:02:40.181Z,81.40
2018-07-25T00:05:08.920Z,81.50
2018-07-25T00:07:37.543Z,81.50
2018-07-25T00:10:08.137Z,81.70
2018-07-25T00:12:36.781Z,81.80
2018-07-25T00:15:05.631Z,81.80
2018-07-25T00:17:34.255Z,82.20
2018-07-25T00:20:03.097Z,82.30
2018-07-25T00:22:31.744Z,82.30
2018-07-25T00:25:01.826Z,82.30
2018-07-25T00:27:30.460Z,82.50
2018-07-25T00:29:59.109Z,82.70
2018-07-25T00:32:27.772Z,82.90
2018-07-25T00:34:56.397Z,83.00
2018-07-25T00:37:25.025Z,83.70
2018-07-25T00:39:53.668Z,84.10
2018-07-25T00:42:22.348Z,83.70
2018-07-25T00:44:51.012Z,83.40
2018-07-25T00:47:19.651Z,82.50
2018-07-25T00:49:48.282Z,81.80
2018-07-25T00:52:16.923Z,80.90
2018-07-25T00:54:45.563Z,80.90
2018-07-25T00:57:14.204Z,81.00
2018-07-25T00:59:42.832Z,81.50
2018-07-25T01:02:11.512Z,81.90
2018-07-25T01:04:40.569Z,81.90
2018-07-25T01:07:09.425Z,82.10
2018-07-25T01:09:38.092Z,82.10
2018-07-25T01:12:07.101Z,82.60
2018-07-25T01:14:35.748Z,83.20
2018-07-25T01:17:04.495Z,83.30
2018-07-25T01:19:33.139Z,84.40
2018-07-25T01:22:01.789Z,83.50
2018-07-25T01:24:30.445Z,83.20
2018-07-25T01:26:59.100Z,82.80
2018-07-25T01:29:27.728Z,82.50
2018-07-25T01:31:56.380Z,82.50
2018-07-25T01:36:53.301Z,82.70
2018-07-25T01:39:21.937Z,82.80
2018-07-25T01:41:50.631Z,82.50
2018-07-25T01:44:19.316Z,82.70
2018-07-25T01:46:48.008Z,83.50
2018-07-25T01:49:16.632Z,84.00
2018-07-25T01:51:45.272Z,84.20
2018-07-25T01:56:42.210Z,84.70
2018-07-25T01:59:10.848Z,84.90
2018-07-25T02:01:39.524Z,84.60
2018-07-25T02:04:08.192Z,84.40
2018-07-25T02:06:36.841Z,83.90
2018-07-25T02:09:08.692Z,83.70
2018-07-25T02:11:37.400Z,83.60
2018-07-25T02:14:06.068Z,83.60
2018-07-25T02:16:34.727Z,83.70
2018-07-25T02:19:03.413Z,83.60
2018-07-25T02:21:32.044Z,83.50
2018-07-25T02:24:00.709Z,84.30
2018-07-25T02:26:29.357Z,83.50
2018-07-25T02:28:58.036Z,82.50
2018-07-25T02:31:26.683Z,82.10
2018-07-25T02:36:28.936Z,81.80
2018-07-25T02:38:57.737Z,82.00
2018-07-25T02:41:26.410Z,82.10
2018-07-25T02:43:55.216Z,82.50
2018-07-25T02:46:23.761Z,82.70
2018-07-25T02:48:52.433Z,83.20
2018-07-25T02:51:21.155Z,83.40
2018-07-25T02:53:49.793Z,83.30
2018-07-25T02:56:18.448Z,83.00
2018-07-25T02:58:47.157Z,82.50
2018-07-25T03:01:15.857Z,82.70
2018-07-25T03:03:44.498Z,82.10
2018-07-25T03:06:13.132Z,82.30
2018-07-25T03:08:41.798Z,82.40
2018-07-25T03:11:12.870Z,82.50
2018-07-25T03:13:41.515Z,82.90
2018-07-25T03:16:10.165Z,83.00
2018-07-25T03:18:38.814Z,83.40
2018-07-25T03:21:07.537Z,83.40
2018-07-25T03:23:38.161Z,83.60
2018-07-25T03:26:07.420Z,83.90
2018-07-25T03:28:36.060Z,83.60
2018-07-25T03:31:04.733Z,83.70
2018-07-25T03:33:33.428Z,83.50
2018-07-25T03:36:02.113Z,83.50
2018-07-25T03:38:33.288Z,83.80
2018-07-25T03:41:02.046Z,84.10
2018-07-25T03:43:30.681Z,84.30
2018-07-25T03:45:59.372Z,84.50
2018-07-25T03:48:28.028Z,84.70
2018-07-25T03:50:56.701Z,84.90
2018-07-25T03:53:25.357Z,85.40
2018-07-25T03:55:53.979Z,85.60
2018-07-25T03:58:22.627Z,85.30
2018-07-25T04:00:51.277Z,84.70
2018-07-25T04:03:22.145Z,84.40
2018-07-25T04:05:54.806Z,84.10
2018-07-25T04:08:23.548Z,83.40
2018-07-25T04:10:52.229Z,83.00
2018-07-25T04:15:49.312Z,84.00
2018-07-25T04:18:18.066Z,84.10
2018-07-25T04:20:46.711Z,84.10
2018-07-25T04:23:16.903Z,84.40
2018-07-25T04:28:13.834Z,84.70
2018-07-25T04:30:42.477Z,85.00
2018-07-25T04:33:11.145Z,85.00
2018-07-25T04:35:39.828Z,85.20
2018-07-25T04:38:08.467Z,85.10
2018-07-25T04:40:37.115Z,85.40
2018-07-25T04:43:05.756Z,85.20
2018-07-25T04:45:34.406Z,85.40
2018-07-25T04:48:03.032Z,85.70
2018-07-25T04:50:31.706Z,85.00
2018-07-25T04:53:00.366Z,84.50
2018-07-25T04:55:29.065Z,84.40
2018-07-25T04:57:57.710Z,84.30
2018-07-25T05:00:26.451Z,84.20
2018-07-25T05:02:55.109Z,84.70
2018-07-25T05:05:23.774Z,84.70
2018-07-25T05:07:52.436Z,85.00
2018-07-25T05:10:21.118Z,85.30
2018-07-25T05:12:49.759Z,85.70
2018-07-25T05:15:18.367Z,85.80
2018-07-25T05:17:48.001Z,85.60
2018-07-25T05:20:18.144Z,85.90
2018-07-25T05:22:48.597Z,85.90
2018-07-25T05:25:17.232Z,86.40
2018-07-25T05:27:48.070Z,86.50
2018-07-25T05:30:16.933Z,86.70
2018-07-25T05:32:45.640Z,87.60
2018-07-25T05:37:46.859Z,87.80
2018-07-25T05:40:17.421Z,87.60
2018-07-25T05:42:47.069Z,87.50
2018-07-25T05:45:15.791Z,88.00
2018-07-25T05:47:44.447Z,88.90
2018-07-25T05:50:26.471Z,88.30
2018-07-25T05:52:55.120Z,87.90
2018-07-25T05:55:27.412Z,87.20
2018-07-25T05:57:58.392Z,87.00
2018-07-25T06:00:32.919Z,86.80
2018-07-25T06:03:02.816Z,87.00
2018-07-25T06:08:08.155Z,87.10
2018-07-25T06:10:36.792Z,85.30
2018-07-25T06:13:05.543Z,84.30
2018-07-25T06:15:34.148Z,82.00
2018-07-25T06:18:03.376Z,79.60
2018-07-25T06:20:32.055Z,77.10
2018-07-25T06:23:04.855Z,76.00
2018-07-25T06:25:33.499Z,75.10
2018-07-25T06:28:03.092Z,72.00
2018-07-25T06:30:31.696Z,71.00
2018-07-25T06:33:01.312Z,69.20
2018-07-25T06:35:29.924Z,68.30
2018-07-25T06:37:58.580Z,66.50
2018-07-25T06:40:28.172Z,65.60
2018-07-25T06:42:56.768Z,63.60
2018-07-25T06:45:25.380Z,61.60
2018-07-25T06:47:56.198Z,60.30
2018-07-25T06:50:25.499Z,59.50
2018-07-25T06:52:54.112Z,58.40
2018-07-25T06:55:23.476Z,58.00
2018-07-25T06:57:53.512Z,57.10
2018-07-25T07:00:22.200Z,55.50
2018-07-25T07:02:50.956Z,54.70
2018-07-25T07:05:26.409Z,54.70
2018-07-25T07:07:55.204Z,54.00
2018-07-25T07:10:23.884Z,53.30
2018-07-25T07:12:52.647Z,52.40
2018-07-25T07:15:21.291Z,50.80
2018-07-25T07:17:49.968Z,50.10
2018-07-25T07:20:18.624Z,48.60
2018-07-25T07:22:47.295Z,47.70
2018-07-25T07:25:15.952Z,46.60
2018-07-25T07:27:44.637Z,47.00
2018-07-25T07:30:13.304Z,46.80
2018-07-25T07:32:41.952Z,46.00
2018-07-25T07:35:10.660Z,45.10
2018-07-25T07:37:39.330Z,44.90
2018-07-25T07:40:08.026Z,44.50
2018-07-25T07:42:36.690Z,44.30
2018-07-25T07:45:06.968Z,44.80
2018-07-25T07:47:35.634Z,43.80
2018-07-25T07:50:04.695Z,42.70
2018-07-25T07:52:33.352Z,42.30
2018-07-25T07:55:02.005Z,42.60
2018-07-25T07:57:30.672Z,42.10
2018-07-25T07:59:59.349Z,42.00
2018-07-25T08:02:28.036Z,41.70
2018-07-25T08:04:56.681Z,41.70
2018-07-25T08:07:25.493Z,42.40
2018-07-25T08:09:54.165Z,42.20
2018-07-25T08:12:22.877Z,41.60
2018-07-25T08:14:51.516Z,41.40
2018-07-25T08:17:20.136Z,41.00
2018-07-25T08:19:48.836Z,40.60
2018-07-25T08:22:17.492Z,40.40
2018-07-25T08:24:46.144Z,39.80
2018-07-25T08:27:14.809Z,40.10
2018-07-25T08:29:43.437Z,39.70
2018-07-25T08:34:42.071Z,40.60
2018-07-25T08:37:10.732Z,39.60
2018-07-25T08:42:07.708Z,39.30
2018-07-25T08:44:36.370Z,38.30
2018-07-25T08:47:05.140Z,38.50
2018-07-25T08:49:33.782Z,38.30
2018-07-25T08:52:02.411Z,36.90
2018-07-25T08:54:31.073Z,37.00
2018-07-25T08:56:59.728Z,36.90
2018-07-25T08:59:28.340Z,36.90
2018-07-25T09:01:57.024Z,35.40
2018-07-25T09:04:26.437Z,35.20
2018-07-25T09:06:55.191Z,34.20
2018-07-25T09:09:23.821Z,34.40
2018-07-25T09:11:52.561Z,35.00
2018-07-25T09:14:21.228Z,35.10
2018-07-25T09:16:49.937Z,34.50
2018-07-25T09:19:18.558Z,33.80
2018-07-25T09:21:47.220Z,33.50
2018-07-25T09:24:15.868Z,32.40
2018-07-25T09:26:44.515Z,32.50
2018-07-25T09:29:13.188Z,33.20
2018-07-25T09:31:41.846Z,32.40
2018-07-25T09:34:10.557Z,31.70
2018-07-25T09:36:39.232Z,31.40
2018-07-25T09:39:09.890Z,30.80
2018-07-25T09:41:38.568Z,30.90
2018-07-25T09:44:07.308Z,30.10
2018-07-25T09:46:36.031Z,30.70
2018-07-25T09:49:04.709Z,29.90
2018-07-25T09:54:01.721Z,29.10
2018-07-25T09:56:30.387Z,28.50
2018-07-25T09:58:59.062Z,28.00
2018-07-25T10:01:27.716Z,28.20
2018-07-25T10:03:56.498Z,27.70
2018-07-25T10:06:25.245Z,27.40
2018-07-25T10:08:53.956Z,27.50
2018-07-25T10:11:23.487Z,27.30
2018-07-25T10:13:53.411Z,27.20
2018-07-25T10:16:22.120Z,27.20
2018-07-25T10:18:50.952Z,27.30
2018-07-25T10:21:19.652Z,26.70
2018-07-25T10:23:49.053Z,27.00
2018-07-25T10:26:17.737Z,26.50
2018-07-25T10:28:46.458Z,26.40
2018-07-25T10:31:15.178Z,26.40
2018-07-25T10:33:44.025Z,26.40
2018-07-25T10:36:12.690Z,26.00
2018-07-25T10:38:41.356Z,26.30
2018-07-25T10:41:10.069Z,25.70
2018-07-25T10:43:38.797Z,26.30
2018-07-25T10:46:07.469Z,26.30
2018-07-25T10:48:36.120Z,25.80
2018-07-25T10:51:04.824Z,26.20
2018-07-25T10:53:34.158Z,26.20
2018-07-25T10:56:02.864Z,25.80
2018-07-25T10:58:31.504Z,25.90
2018-07-25T11:01:01.154Z,24.40
2018-07-25T11:03:30.345Z,24.40
2018-07-25T11:05:59.053Z,24.30
2018-07-25T11:08:28.972Z,24.60
2018-07-25T11:10:57.892Z,24.30
2018-07-25T11:13:26.568Z,23.30
2018-07-25T11:15:55.536Z,23.30
2018-07-25T11:18:24.189Z,23.80
2018-07-25T11:20:52.833Z,23.90
2018-07-25T11:23:21.484Z,23.30
2018-07-25T11:25:50.639Z,23.20
2018-07-25T11:28:19.322Z,23.50
2018-07-25T11:30:47.989Z,23.30
2018-07-25T11:33:16.644Z,22.90
2018-07-25T11:35:45.298Z,22.50
2018-07-25T11:38:14.484Z,22.90
2018-07-25T11:41:19.560Z,22.30
2018-07-25T11:46:16.735Z,22.10
2018-07-25T11:48:45.765Z,22.40
2018-07-25T11:51:14.471Z,22.60
2018-07-25T11:53:43.111Z,22.10
2018-07-25T11:56:11.855Z,22.10
2018-07-25T11:58:49.668Z,22.10
2018-07-25T12:01:18.446Z,22.20
2018-07-25T12:03:47.148Z,22.60
2018-07-25T12:06:17.611Z,22.60
2018-07-25T12:08:47.480Z,22.40
2018-07-25T12:11:18.811Z,22.70
2018-07-25T12:13:47.740Z,22.40
2018-07-25T12:16:16.491Z,22.90
2018-07-25T12:18:45.200Z,23.20
2018-07-25T12:23:42.204Z,22.90
2018-07-25T12:26:10.944Z,22.40
2018-07-25T12:28:39.678Z,22.10
2018-07-25T12:31:08.576Z,22.40
2018-07-25T12:33:37.289Z,22.50
2018-07-25T12:38:34.735Z,22.70
2018-07-25T12:41:03.491Z,23.20
2018-07-25T12:43:32.283Z,22.90
2018-07-25T12:46:01.068Z,22.60
2018-07-25T12:48:31.204Z,22.20
2018-07-25T12:50:59.896Z,22.30
2018-07-25T12:53:30.926Z,21.90
2018-07-25T12:55:59.644Z,21.60
2018-07-25T12:58:30.111Z,22.70
2018-07-25T13:00:58.832Z,23.10
2018-07-25T13:03:27.617Z,23.00
2018-07-25T13:05:56.276Z,23.30
2018-07-25T13:08:27.144Z,23.60
2018-07-25T13:10:55.873Z,23.90
2018-07-25T13:13:25.573Z,24.50
2018-07-25T13:15:54.309Z,24.90
2018-07-25T13:18:23.025Z,25.30
2018-07-25T13:20:51.800Z,25.10
2018-07-25T13:23:20.520Z,25.10
2018-07-25T13:25:49.181Z,24.90
2018-07-25T13:28:17.963Z,25.80
2018-07-25T13:30:47.428Z,24.40
2018-07-25T13:33:16.143Z,24.10
2018-07-25T13:35:46.841Z,24.40
2018-07-25T13:38:15.492Z,23.70
2018-07-25T13:40:44.207Z,23.90
2018-07-25T13:43:12.875Z,23.80
2018-07-25T13:45:43.202Z,24.60
2018-07-25T13:48:11.740Z,25.10
2018-07-25T13:50:43.353Z,24.50
2018-07-25T13:53:12.172Z,24.20
2018-07-25T13:55:40.875Z,24.40
2018-07-25T13:58:10.916Z,24.30
2018-07-25T14:00:42.781Z,24.70
2018-07-25T14:03:12.835Z,26.30
2018-07-25T14:05:41.617Z,26.30
2018-07-25T14:08:10.404Z,26.90
2018-07-25T14:10:39.235Z,25.90
2018-07-25T14:13:08.965Z,25.50
2018-07-25T14:15:37.706Z,25.10
2018-07-25T14:18:06.712Z,24.80
2018-07-25T14:20:35.718Z,24.50
2018-07-25T14:23:04.393Z,24.10
2018-07-25T14:25:34.128Z,24.60
2018-07-25T14:28:02.837Z,24.60
2018-07-25T14:30:31.603Z,24.30
2018-07-25T14:33:01.472Z,25.60
2018-07-25T14:35:32.330Z,26.70
2018-07-25T14:38:00.988Z,27.50
2018-07-25T14:40:29.664Z,27.80
2018-07-25T14:42:58.343Z,27.90
2018-07-25T14:45:27.023Z,28.30
2018-07-25T14:47:56.025Z,29.20
2018-07-25T14:50:32.571Z,29.30
2018-07-25T14:53:01.269Z,30.00
2018-07-25T14:55:30.080Z,28.70
2018-07-25T14:57:59.412Z,28.20
2018-07-25T15:00:29.681Z,28.20
2018-07-25T15:05:28.337Z,28.10
2018-07-25T15:07:57.260Z,28.10
2018-07-25T15:10:26.064Z,28.40
2018-07-25T15:12:57.125Z,28.30
2018-07-25T15:15:29.255Z,29.20
2018-07-25T15:17:57.952Z,29.90
2018-07-25T15:20:26.766Z,29.70
2018-07-25T15:22:55.485Z,29.80
2018-07-25T15:25:24.156Z,29.60
2018-07-25T15:27:52.861Z,29.80
2018-07-25T15:30:21.531Z,29.70
2018-07-25T15:32:50.236Z,29.70
2018-07-25T15:35:19.068Z,29.70
2018-07-25T15:37:47.848Z,29.80
2018-07-25T15:40:16.580Z,29.90
2018-07-25T15:42:46.028Z,30.10
2018-07-25T15:45:14.746Z,30.20
2018-07-25T15:47:43.455Z,30.60
2018-07-25T15:50:12.188Z,31.10
2018-07-25T15:52:40.952Z,31.70
2018-07-25T15:55:09.827Z,32.20
2018-07-25T15:57:38.556Z,31.40
2018-07-25T16:00:08.233Z,31.60
2018-07-25T16:02:37.220Z,31.40
2018-07-25T16:05:05.996Z,31.40
2018-07-25T16:07:34.681Z,31.40
2018-07-25T16:10:03.569Z,31.40
2018-07-25T16:12:32.297Z,31.50
2018-07-25T16:17:30.035Z,31.60
2018-07-25T16:19:59.202Z,31.80
2018-07-25T16:22:28.043Z,31.50
2018-07-25T16:24:57.027Z,31.90
2018-07-25T16:27:25.668Z,32.00
2018-07-25T16:29:54.335Z,31.70
2018-07-25T16:32:23.028Z,31.80
2018-07-25T16:34:52.738Z,31.90
2018-07-25T16:37:21.566Z,32.00
2018-07-25T16:39:51.893Z,31.90
2018-07-25T16:42:20.638Z,32.10
2018-07-25T16:44:49.536Z,32.20
2018-07-25T16:47:18.219Z,33.10
2018-07-25T16:49:46.900Z,33.00
2018-07-25T16:52:15.584Z,32.80
2018-07-25T16:54:45.240Z,32.70
2018-07-25T16:57:13.908Z,32.10
2018-07-25T16:59:42.572Z,32.50
2018-07-25T17:02:11.726Z,32.30
2018-07-25T17:04:40.622Z,32.20
2018-07-25T17:07:09.375Z,32.00
2018-07-25T17:09:38.028Z,32.20
2018-07-25T17:12:06.738Z,32.70
2018-07-25T17:14:35.469Z,33.10
2018-07-25T17:17:04.114Z,32.80
2018-07-25T17:19:32.801Z,33.00
2018-07-25T17:22:01.528Z,33.10
2018-07-25T17:24:30.226Z,33.00
2018-07-25T17:26:58.897Z,33.20
2018-07-25T17:29:27.577Z,33.30
2018-07-25T17:31:56.248Z,33.90
2018-07-25T17:34:24.927Z,34.30
2018-07-25T17:36:54.384Z,34.60
2018-07-25T17:41:51.500Z,35.30
2018-07-25T17:44:20.192Z,34.90
2018-07-25T17:46:48.891Z,35.70
2018-07-25T17:49:17.532Z,35.90
2018-07-25T17:51:46.240Z,36.80
2018-07-25T17:54:15.016Z,37.70
2018-07-25T17:56:43.759Z,38.00
2018-07-25T17:59:12.424Z,38.50
2018-07-25T18:01:41.144Z,38.90
2018-07-25T18:04:09.833Z,39.00
2018-07-25T18:06:38.501Z,39.60
2018-07-25T18:09:09.782Z,39.90
2018-07-25T18:11:38.467Z,40.20
2018-07-25T18:14:13.108Z,40.70
2018-07-25T18:16:43.315Z,41.00
2018-07-25T18:19:13.125Z,41.30
2018-07-25T18:21:42.328Z,41.80
2018-07-25T18:24:11.621Z,41.80
2018-07-25T18:26:40.444Z,42.00
2018-07-25T18:29:09.223Z,42.30
2018-07-25T18:31:37.982Z,42.10
2018-07-25T18:34:06.874Z,41.90
2018-07-25T18:36:40.373Z,41.40
2018-07-25T18:39:11.826Z,41.20
2018-07-25T18:41:41.203Z,41.10
2018-07-25T18:44:10.768Z,41.10
2018-07-25T18:46:43.840Z,41.80
2018-07-25T18:49:13.181Z,42.30
2018-07-25T18:51:41.896Z,42.50
2018-07-25T18:54:11.439Z,42.80
2018-07-25T18:56:41.052Z,42.90
2018-07-25T18:59:10.144Z,43.20
2018-07-25T19:01:39.979Z,43.40
2018-07-25T19:04:09.212Z,43.60
2018-07-25T19:06:37.835Z,44.30
2018-07-25T19:09:12.567Z,45.20
2018-07-25T19:11:48.204Z,45.70
2018-07-25T19:14:26.577Z,45.90
2018-07-25T19:16:55.276Z,45.50
2018-07-25T19:19:25.162Z,45.50
2018-07-25T19:22:07.652Z,46.00
2018-07-25T19:24:36.293Z,46.40
2018-07-25T19:27:05.569Z,46.40
2018-07-25T19:29:34.249Z,46.30
2018-07-25T19:32:02.942Z,47.50
2018-07-25T19:34:31.568Z,47.20
2018-07-25T19:37:00.356Z,47.10
2018-07-25T19:39:33.424Z,47.70
2018-07-25T19:44:30.364Z,47.80
2018-07-25T19:46:58.968Z,48.20
2018-07-25T19:49:27.632Z,49.20
2018-07-25T19:51:56.336Z,49.50
2018-07-25T19:54:24.966Z,50.30
2018-07-25T19:56:53.607Z,50.30
2018-07-25T19:59:22.640Z,50.70
2018-07-25T20:01:52.140Z,51.10
2018-07-25T20:04:21.652Z,51.90
2018-07-25T20:06:50.300Z,52.00
2018-07-25T20:09:18.918Z,52.30
2018-07-25T20:11:47.536Z,52.50
2018-07-25T20:14:21.605Z,52.70
2018-07-25T20:16:50.775Z,53.40
2018-07-25T20:19:19.489Z,53.90
2018-07-25T20:21:48.144Z,53.60
2018-07-25T20:24:16.834Z,54.00
2018-07-25T20:29:13.769Z,55.20
2018-07-25T20:31:42.403Z,55.40
2018-07-25T20:34:11.044Z,55.80
2018-07-25T20:36:39.725Z,56.40
2018-07-25T20:39:10.621Z,56.50
2018-07-25T20:41:43.272Z,57.20
2018-07-25T20:44:12.871Z,57.00
2018-07-25T20:46:43.520Z,56.70
2018-07-25T20:49:12.284Z,57.20
2018-07-25T20:51:44.445Z,57.40
2018-07-25T20:54:13.327Z,57.70
2018-07-25T20:56:44.143Z,57.80
2018-07-25T20:59:15.319Z,58.10
2018-07-25T21:04:15.500Z,57.30
2018-07-25T21:06:45.489Z,56.60
2018-07-25T21:09:14.945Z,56.00
2018-07-25T21:11:44.276Z,55.80
2018-07-25T21:14:14.972Z,55.90
2018-07-25T21:16:44.230Z,56.50
2018-07-25T21:19:14.849Z,57.80
2018-07-25T21:21:43.824Z,58.50
2018-07-25T21:24:18.339Z,59.10
2018-07-25T21:26:51.539Z,59.40
2018-07-25T21:29:21.736Z,59.80
2018-07-25T21:31:52.115Z,59.80
2018-07-25T21:34:20.756Z,60.40
2018-07-25T21:36:49.380Z,60.20
2018-07-25T21:39:17.993Z,60.00
2018-07-25T21:41:46.608Z,60.70
2018-07-25T21:44:15.220Z,59.90
2018-07-25T21:46:43.885Z,59.90
2018-07-25T21:49:12.544Z,60.20
2018-07-25T21:51:41.201Z,60.40
2018-07-25T21:54:09.848Z,61.10
2018-07-25T21:56:38.542Z,61.10
2018-07-25T21:59:07.156Z,60.70
2018-07-25T22:01:35.804Z,60.90
2018-07-25T22:04:04.490Z,60.90
2018-07-25T22:06:33.128Z,61.10
2018-07-25T22:09:01.774Z,60.90
2018-07-25T22:11:30.380Z,61.00
2018-07-25T22:13:59.049Z,61.60
2018-07-25T22:16:27.726Z,61.90
2018-07-25T22:18:56.332Z,62.30
2018-07-25T22:21:24.943Z,62.10
2018-07-25T22:23:53.555Z,61.60
2018-07-25T22:26:22.198Z,61.90
2018-07-25T22:28:50.863Z,61.70
2018-07-25T22:31:19.537Z,61.70
2018-07-25T22:33:48.135Z,61.90
2018-07-25T22:36:16.776Z,62.20
2018-07-25T22:38:45.387Z,62.20
2018-07-25T22:41:14.030Z,62.20
2018-07-25T22:43:42.644Z,62.90
2018-07-25T22:46:11.263Z,63.10
2018-07-25T22:48:39.919Z,64.00
2018-07-25T22:51:08.546Z,63.30
2018-07-25T22:53:37.216Z,63.40
2018-07-25T22:56:05.864Z,63.60
2018-07-25T22:58:34.486Z,63.70
2018-07-25T23:01:03.136Z,64.00
2018-07-25T23:03:31.764Z,64.80
2018-07-25T23:06:00.420Z,65.00
2018-07-25T23:08:29.096Z,65.20
2018-07-25T23:10:57.725Z,65.10
2018-07-25T23:13:26.371Z,64.40
2018-07-25T23:15:54.988Z,64.00
2018-07-25T23:18:23.596Z,63.90
2018-07-25T23:20:52.215Z,64.20
2018-07-25T23:23:20.824Z,64.70
2018-07-25T23:25:49.438Z,64.50
2018-07-25T23:28:18.048Z,64.80
2018-07-25T23:30:46.732Z,65.00
2018-07-25T23:33:15.364Z,65.20
2018-07-25T23:35:43.981Z,65.10
2018-07-25T23:38:12.599Z,65.30
2018-07-25T23:40:41.228Z,65.60
2018-07-25T23:43:09.864Z,65.60
2018-07-25T23:45:38.496Z,65.40
2018-07-25T23:48:07.164Z,65.10
2018-07-25T23:50:35.792Z,64.80
2018-07-25T23:53:04.476Z,65.40
2018-07-25T23:55:33.140Z,66.30
2018-07-25T23:58:01.753Z,66.90
